Time;durP1;ratioP1;P1;durP2;ratioP2;P2;SDS_P1;SDS_P2;PMS_P1;PMS_P2;Temp;Humidity;BMP_temperature;BMP_pressure;BME280_temperature;BME280_humidity;BME280_pressure;Samples;Min_cycle;Max_cycle;Signal;HPM_P1;HPM_P2
2021/12/09 00:00:43;;;;;;;9.97;7.47;;;3.40;99.90;;;;;;4997336;28;20523;-78
2021/12/09 00:06:12;;;;;;;12.93;6.63;;;3.30;99.90;;;;;;4997098;28;20878;-79
2021/12/09 00:09:09;;;;;;;6.97;6.23;;;3.40;99.90;;;;;;4997212;28;20405;-78
2021/12/09 00:11:50;;;;;;;11.40;7.23;;;3.40;99.90;;;;;;4992391;28;20456;-78
2021/12/09 00:17:38;;;;;;;9.30;7.47;;;3.40;99.90;;;;;;5037498;28;20374;-78
2021/12/09 00:26:25;;;;;;;15.47;8.43;;;3.30;99.90;;;;;;5024329;28;20740;-78
2021/12/09 00:28:52;;;;;;;14.40;7.63;;;3.30;99.90;;;;;;5042746;28;20392;-78
2021/12/09 00:31:31;;;;;;;14.00;8.80;;;3.20;99.90;;;;;;5028595;28;20394;-78
2021/12/09 00:34:37;;;;;;;13.67;8.53;;;3.30;99.90;;;;;;5028586;28;20897;-79
2021/12/09 00:43:20;;;;;;;11.20;8.50;;;3.30;99.90;;;;;;5050767;28;20410;-78
2021/12/09 00:46:02;;;;;;;10.33;7.50;;;3.30;99.90;;;;;;5002360;28;20414;-78
2021/12/09 00:51:33;;;;;;;12.63;8.30;;;2.90;99.90;;;;;;5000319;28;20389;-78
2021/12/09 00:54:25;;;;;;;8.60;7.30;;;3.10;99.90;;;;;;4983005;28;20397;-78
2021/12/09 00:57:34;;;;;;;14.30;9.23;;;3.10;99.90;;;;;;4968335;28;20429;-78
2021/12/09 01:00:00;;;;;;;10.50;7.53;;;3.10;99.90;;;;;;4978336;28;20421;-78
2021/12/09 01:03:01;;;;;;;10.83;8.50;;;3.30;99.90;;;;;;4941140;29;20441;-78
2021/12/09 01:05:45;;;;;;;9.13;7.40;;;3.30;99.90;;;;;;4944568;29;20482;-78
2021/12/09 01:08:48;;;;;;;12.50;8.50;;;3.30;99.90;;;;;;4957948;29;20393;-78
2021/12/09 01:14:53;;;;;;;15.87;8.40;;;3.10;99.90;;;;;;4944540;29;20410;-78
2021/12/09 01:17:19;;;;;;;16.30;9.90;;;3.00;99.90;;;;;;4986795;28;20419;-78
2021/12/09 01:29:08;;;;;;;10.33;8.90;;;3.10;99.90;;;;;;5014633;28;20363;-78
2021/12/09 01:31:55;;;;;;;14.43;11.37;;;3.00;99.90;;;;;;5014692;28;20487;-78
2021/12/09 01:34:55;;;;;;;13.63;10.33;;;3.10;99.90;;;;;;5002054;28;20379;-78
2021/12/09 01:37:34;;;;;;;10.30;9.00;;;3.10;99.90;;;;;;5015665;28;20378;-78
2021/12/09 01:40:03;;;;;;;18.07;10.07;;;3.10;99.90;;;;;;5002886;28;20390;-78
2021/12/09 01:42:31;;;;;;;11.50;9.20;;;3.10;99.90;;;;;;5037456;28;20886;-78
2021/12/09 01:45:15;;;;;;;10.97;7.60;;;3.10;99.90;;;;;;5019235;28;20507;-78
2021/12/09 01:48:24;;;;;;;15.80;7.73;;;3.10;99.90;;;;;;5022150;28;20661;-79
2021/12/09 01:54:36;;;;;;;6.83;5.93;;;3.00;99.90;;;;;;5014684;28;20382;-78
2021/12/09 02:03:08;;;;;;;8.20;6.60;;;2.60;99.90;;;;;;5014996;28;20367;-78
2021/12/09 02:05:46;;;;;;;14.17;7.83;;;2.30;99.90;;;;;;5014964;28;20386;-78
2021/12/09 02:08:18;;;;;;;13.87;9.13;;;2.20;99.90;;;;;;4998408;28;20388;-78
2021/12/09 02:11:07;;;;;;;9.40;7.50;;;2.10;99.90;;;;;;4998036;28;20593;-78
2021/12/09 02:13:46;;;;;;;11.90;7.00;;;1.90;99.90;;;;;;4998905;28;20905;-78
2021/12/09 02:16:32;;;;;;;11.67;7.27;;;2.10;99.90;;;;;;5014779;28;20424;-78
2021/12/09 02:22:26;;;;;;;6.83;5.90;;;2.10;99.90;;;;;;5028251;28;20511;-79
2021/12/09 02:25:24;;;;;;;10.57;7.43;;;2.30;99.90;;;;;;5036586;28;20362;-78
2021/12/09 02:28:27;;;;;;;8.80;6.80;;;2.30;99.90;;;;;;5023008;28;20378;-78
2021/12/09 02:30:56;;;;;;;9.00;6.10;;;2.30;99.90;;;;;;5039939;28;20728;-78
2021/12/09 02:33:22;;;;;;;10.13;6.53;;;2.40;99.90;;;;;;5040598;28;20418;-78
2021/12/09 02:36:02;;;;;;;6.60;5.50;;;2.40;99.90;;;;;;5023544;28;20373;-78
2021/12/09 02:38:49;;;;;;;12.37;8.27;;;2.30;99.90;;;;;;5050890;28;20762;-78
2021/12/09 02:41:37;;;;;;;14.37;6.97;;;2.30;99.90;;;;;;5060023;28;20442;-78
2021/12/09 02:44:18;;;;;;;7.80;5.97;;;2.10;99.90;;;;;;5027383;28;20384;-79
2021/12/09 02:50:07;;;;;;;8.27;5.10;;;2.10;99.90;;;;;;5047695;28;20382;-78
2021/12/09 02:56:18;;;;;;;7.97;7.20;;;2.20;99.90;;;;;;4979308;28;20392;-78
2021/12/09 02:58:44;;;;;;;9.53;6.70;;;2.40;99.90;;;;;;4948920;28;20382;-78
2021/12/09 03:01:25;;;;;;;8.07;5.50;;;2.30;99.90;;;;;;4947132;28;20456;-78
2021/12/09 03:04:10;;;;;;;10.50;8.00;;;2.30;99.90;;;;;;4963158;28;20577;-78
2021/12/09 03:07:08;;;;;;;6.73;4.67;;;2.30;99.90;;;;;;4963032;28;20377;-78
2021/12/09 03:09:34;;;;;;;5.63;4.90;;;2.60;99.90;;;;;;4980031;28;20391;-78
2021/12/09 03:12:13;;;;;;;5.57;4.90;;;2.80;99.90;;;;;;4963240;28;20447;-78
2021/12/09 03:15:16;;;;;;;8.23;5.23;;;2.90;99.90;;;;;;4963781;28;20899;-78
2021/12/09 03:18:00;;;;;;;7.27;4.87;;;2.90;99.90;;;;;;4978824;28;20457;-78
2021/12/09 03:23:28;;;;;;;7.50;4.80;;;3.20;99.90;;;;;;5015421;28;20539;-78
2021/12/09 03:28:57;;;;;;;9.37;6.73;;;3.20;99.90;;;;;;5045380;28;20365;-78
2021/12/09 03:31:43;;;;;;;6.80;6.10;;;3.20;99.90;;;;;;5018005;28;20496;-78
2021/12/09 03:34:46;;;;;;;6.07;5.47;;;3.20;99.90;;;;;;5001521;28;20439;-78
2021/12/09 03:40:54;;;;;;;7.87;5.70;;;3.10;99.90;;;;;;4998854;28;20470;-79
2021/12/09 03:43:21;;;;;;;6.03;5.00;;;3.20;99.90;;;;;;5017445;28;20363;-78
2021/12/09 03:49:24;;;;;;;9.20;6.43;;;3.20;99.90;;;;;;5004881;28;20397;-78
2021/12/09 03:55:27;;;;;;;8.73;6.33;;;2.80;99.90;;;;;;5005382;28;20371;-78
2021/12/09 04:00:57;;;;;;;8.37;6.60;;;2.80;99.90;;;;;;5016564;28;20414;-78
2021/12/09 04:03:25;;;;;;;10.27;6.80;;;2.60;99.90;;;;;;5057109;28;20381;-78
2021/12/09 04:06:24;;;;;;;11.20;6.90;;;2.60;99.90;;;;;;5042047;28;20394;-78
2021/12/09 04:09:09;;;;;;;6.67;4.63;;;2.50;99.90;;;;;;5057830;28;20364;-78
2021/12/09 04:12:09;;;;;;;9.90;6.10;;;2.50;99.90;;;;;;5027686;28;20377;-78
2021/12/09 04:18:28;;;;;;;16.73;7.00;;;2.40;99.90;;;;;;5046525;28;20395;-78
2021/12/09 04:21:25;;;;;;;7.07;5.90;;;2.80;99.90;;;;;;5050635;28;20412;-78
2021/12/09 04:24:11;;;;;;;8.50;5.30;;;2.90;99.90;;;;;;5038259;28;20388;-78
2021/12/09 04:30:09;;;;;;;6.63;6.00;;;2.50;99.90;;;;;;5057367;28;20379;-78
2021/12/09 04:32:54;;;;;;;8.73;5.73;;;2.30;99.90;;;;;;5023102;28;20365;-78
2021/12/09 04:35:37;;;;;;;11.10;6.70;;;2.30;99.90;;;;;;5058076;28;21033;-78
2021/12/09 04:41:25;;;;;;;7.23;6.20;;;2.20;99.90;;;;;;5037694;28;20815;-78
2021/12/09 04:44:05;;;;;;;8.57;5.30;;;2.40;99.90;;;;;;5019795;28;20481;-78
2021/12/09 04:47:01;;;;;;;10.80;6.53;;;2.30;99.90;;;;;;4986487;28;20416;-78
2021/12/09 04:52:36;;;;;;;10.63;6.10;;;2.50;99.90;;;;;;5017127;28;20749;-78
2021/12/09 04:55:20;;;;;;;6.93;6.33;;;2.50;99.90;;;;;;5016765;28;20453;-78
2021/12/09 05:01:07;;;;;;;8.40;5.00;;;2.30;99.90;;;;;;5016175;28;20459;-78
2021/12/09 05:04:05;;;;;;;7.97;6.30;;;2.40;99.90;;;;;;4996254;28;20419;-78
2021/12/09 05:10:09;;;;;;;6.77;5.80;;;2.50;99.90;;;;;;4982550;28;20481;-78
2021/12/09 05:12:59;;;;;;;14.23;6.10;;;2.50;99.90;;;;;;4983871;28;20416;-78
2021/12/09 05:15:36;;;;;;;12.47;8.10;;;2.50;99.90;;;;;;4981219;28;20434;-78
2021/12/09 05:18:02;;;;;;;9.23;7.43;;;2.50;99.90;;;;;;4992774;28;20744;-78
2021/12/09 05:20:58;;;;;;;12.30;6.50;;;2.60;99.90;;;;;;5002608;28;20421;-78
2021/12/09 05:23:25;;;;;;;14.57;7.83;;;2.50;99.90;;;;;;5021751;28;20618;-78
2021/12/09 05:29:01;;;;;;;13.33;9.33;;;2.50;99.90;;;;;;5027886;28;20432;-78
2021/12/09 05:32:07;;;;;;;17.43;8.27;;;2.50;99.90;;;;;;4990110;28;20483;-78
2021/12/09 05:35:10;;;;;;;12.57;8.70;;;2.40;99.90;;;;;;4993454;28;20856;-78
2021/12/09 05:37:40;;;;;;;9.43;6.40;;;2.30;99.90;;;;;;5011169;28;20445;-78
2021/12/09 05:43:26;;;;;;;11.77;6.50;;;2.30;99.90;;;;;;4995938;28;20380;-78
2021/12/09 05:49:26;;;;;;;10.50;6.03;;;2.10;99.90;;;;;;4982237;28;20405;-78
2021/12/09 05:52:40;;;;;;;10.60;6.00;;;2.00;99.90;;;;;;4965863;28;20420;-78
2021/12/09 05:55:31;;;;;;;9.43;5.70;;;2.00;99.90;;;;;;4979299;28;20523;-78
2021/12/09 05:58:13;;;;;;;9.97;6.20;;;2.00;99.90;;;;;;4926282;28;20405;-78
2021/12/09 06:01:10;;;;;;;11.47;8.00;;;1.90;99.90;;;;;;4980594;28;20423;-78
2021/12/09 06:04:02;;;;;;;11.10;8.23;;;2.00;99.90;;;;;;4967621;28;20398;-78
2021/12/09 06:06:48;;;;;;;14.57;7.60;;;2.00;99.90;;;;;;5045026;28;20405;-78
2021/12/09 06:09:45;;;;;;;11.17;7.30;;;1.90;99.90;;;;;;5061575;28;20865;-78
2021/12/09 06:12:41;;;;;;;8.93;5.80;;;2.00;99.90;;;;;;5059040;28;20412;-78
2021/12/09 06:15:33;;;;;;;13.43;8.87;;;1.90;99.90;;;;;;5039181;28;20460;-78
2021/12/09 06:18:00;;;;;;;6.83;6.17;;;2.00;99.90;;;;;;5039104;28;20503;-78
2021/12/09 06:20:56;;;;;;;10.30;8.37;;;2.10;99.90;;;;;;5009375;28;20576;-78
2021/12/09 06:27:09;;;;;;;9.93;6.57;;;2.40;99.90;;;;;;5042088;28;20409;-78
2021/12/09 06:29:47;;;;;;;9.80;5.70;;;2.40;99.90;;;;;;5033181;28;20451;-79
2021/12/09 06:32:32;;;;;;;11.57;7.07;;;2.60;99.90;;;;;;5016971;28;20406;-79
2021/12/09 06:35:25;;;;;;;8.37;6.43;;;2.50;99.90;;;;;;5012970;28;20419;-78
2021/12/09 06:47:47;;;;;;;11.83;8.17;;;3.00;99.90;;;;;;5052050;28;20789;-80
2021/12/09 06:50:26;;;;;;;10.03;7.40;;;3.10;99.90;;;;;;5043079;28;20855;-81
2021/12/09 06:56:51;;;;;;;14.87;8.40;;;3.30;99.90;;;;;;5060756;28;20399;-81
2021/12/09 06:59:36;;;;;;;7.10;5.97;;;3.40;99.90;;;;;;5054603;28;20392;-81
2021/12/09 07:02:14;;;;;;;12.40;7.90;;;3.40;99.90;;;;;;5057436;28;20453;-81
2021/12/09 07:07:55;;;;;;;7.17;6.30;;;3.50;99.90;;;;;;5051762;28;20426;-80
2021/12/09 07:10:40;;;;;;;6.33;5.40;;;3.50;99.90;;;;;;5067007;28;20493;-80
2021/12/09 07:13:31;;;;;;;7.63;5.37;;;3.30;99.90;;;;;;5069611;28;20422;-81
2021/12/09 07:19:24;;;;;;;9.17;7.23;;;3.20;99.90;;;;;;5062778;28;20866;-80
2021/12/09 07:21:50;;;;;;;8.73;6.50;;;3.10;99.90;;;;;;5066224;28;20434;-81
2021/12/09 07:24:40;;;;;;;8.53;6.20;;;2.90;99.90;;;;;;5042737;28;20397;-80
2021/12/09 07:30:28;;;;;;;10.33;6.43;;;3.00;99.90;;;;;;5064857;28;20404;-81
2021/12/09 07:33:37;;;;;;;9.73;7.10;;;2.80;99.90;;;;;;5065123;28;20429;-81
2021/12/09 07:36:16;;;;;;;10.87;6.83;;;2.60;99.90;;;;;;5063449;28;20495;-81
2021/12/09 07:47:45;;;;;;;11.80;8.40;;;2.40;99.90;;;;;;5064129;28;20817;-81
2021/12/09 07:50:32;;;;;;;13.60;7.33;;;2.50;99.90;;;;;;5058913;28;20907;-81
2021/12/09 07:55:56;;;;;;;8.77;6.17;;;2.40;99.90;;;;;;5071718;28;20524;-80
2021/12/09 08:01:57;;;;;;;11.17;7.10;;;2.20;99.90;;;;;;5059339;28;20468;-80
2021/12/09 08:04:35;;;;;;;11.30;6.60;;;2.20;99.90;;;;;;5061141;28;20435;-80
2021/12/09 08:07:25;;;;;;;14.00;7.77;;;2.30;99.90;;;;;;5051159;28;20931;-80
2021/12/09 08:09:52;;;;;;;8.73;6.73;;;2.40;99.90;;;;;;5041646;28;20831;-81
2021/12/09 08:12:18;;;;;;;14.00;7.70;;;2.40;99.90;;;;;;5050454;28;20810;-80
2021/12/09 08:15:03;;;;;;;11.00;7.13;;;2.30;99.90;;;;;;5063325;28;20425;-80
2021/12/09 08:18:01;;;;;;;13.00;8.23;;;2.20;99.90;;;;;;5056893;28;20433;-80
2021/12/09 08:26:08;;;;;;;11.30;8.20;;;2.30;99.90;;;;;;5053802;28;20454;-81
2021/12/09 08:28:59;;;;;;;10.50;7.67;;;2.40;99.90;;;;;;5062476;28;20525;-79
2021/12/09 08:31:27;;;;;;;14.80;8.43;;;2.40;99.90;;;;;;5060033;28;20198;-80
2021/12/09 08:34:12;;;;;;;8.70;7.20;;;2.60;99.90;;;;;;5054678;28;20404;-79
2021/12/09 08:36:50;;;;;;;19.90;8.17;;;2.70;99.90;;;;;;5055331;28;20417;-80
2021/12/09 08:39:28;;;;;;;12.83;7.37;;;2.80;99.90;;;;;;5059221;28;20466;-81
2021/12/09 08:45:16;;;;;;;8.23;7.40;;;3.20;99.90;;;;;;5054541;28;20412;-81
2021/12/09 08:48:07;;;;;;;18.60;8.00;;;3.10;99.90;;;;;;5058595;28;20470;-80
2021/12/09 08:50:45;;;;;;;20.10;10.00;;;3.20;99.90;;;;;;5047907;28;20931;-80
2021/12/09 08:53:30;;;;;;;18.13;9.80;;;3.50;99.90;;;;;;5061234;28;20817;-80
2021/12/09 08:56:39;;;;;;;15.90;8.10;;;3.70;99.90;;;;;;5048072;28;20719;-80
2021/12/09 08:59:35;;;;;;;16.73;6.93;;;3.80;99.90;;;;;;5057761;28;21090;-79
2021/12/09 09:11:28;;;;;;;13.90;8.37;;;4.20;99.90;;;;;;5061164;28;20418;-81
2021/12/09 09:14:06;;;;;;;17.20;10.60;;;4.20;99.90;;;;;;5058600;28;20414;-80
2021/12/09 09:16:32;;;;;;;13.60;8.07;;;4.10;99.90;;;;;;5053729;28;20429;-80
2021/12/09 09:19:29;;;;;;;14.03;6.60;;;4.00;99.90;;;;;;5066022;28;20408;-79
2021/12/09 09:22:26;;;;;;;16.30;9.57;;;4.20;99.90;;;;;;5068855;28;20219;-81
2021/12/09 09:28:23;;;;;;;20.43;9.43;;;4.10;99.90;;;;;;5049396;28;20533;-82
2021/12/09 09:34:02;;;;;;;12.30;8.73;;;4.40;99.90;;;;;;5055953;28;21672;-81
2021/12/09 09:36:59;;;;;;;19.40;7.60;;;4.50;99.90;;;;;;5059814;28;20423;-81
2021/12/09 09:39:56;;;;;;;14.10;8.90;;;4.50;99.90;;;;;;5058675;28;20539;-80
2021/12/09 09:43:27;;;;;;;7.30;6.60;;;4.60;99.90;;;;;;5058927;28;21968;-81
2021/12/09 09:46:05;;;;;;;18.13;9.30;;;4.60;99.90;;;;;;5070564;28;20412;-81
2021/12/09 09:49:21;;;;;;;11.70;7.90;;;4.60;99.90;;;;;;5061891;28;20990;-81
2021/12/09 09:52:09;;;;;;;10.80;6.93;;;4.60;99.90;;;;;;5072349;28;20864;-82
2021/12/09 09:54:40;;;;;;;13.60;9.73;;;4.70;99.90;;;;;;5071409;28;20433;-81
2021/12/09 09:57:37;;;;;;;15.23;6.70;;;4.80;99.90;;;;;;5076853;28;20453;-81
2021/12/09 10:00:34;;;;;;;18.00;9.53;;;4.80;99.90;;;;;;5065869;28;20463;-81
2021/12/09 10:06:16;;;;;;;9.40;6.60;;;4.60;99.90;;;;;;5059692;28;20431;-81
2021/12/09 10:08:43;;;;;;;13.93;6.90;;;4.70;99.90;;;;;;5071711;28;20426;-81
2021/12/09 10:11:39;;;;;;;15.60;8.50;;;4.70;99.90;;;;;;5058364;28;20433;-81
2021/12/09 10:21:00;;;;;;;15.50;7.70;;;4.70;99.90;;;;;;5064994;28;20432;-79
2021/12/09 10:23:44;;;;;;;10.93;7.83;;;4.70;99.90;;;;;;5075720;28;20483;-81
2021/12/09 10:26:30;;;;;;;11.43;7.23;;;4.50;99.90;;;;;;5073211;28;20998;-78
2021/12/09 10:29:25;;;;;;;11.33;7.90;;;4.10;99.90;;;;;;5052287;28;21004;-80
2021/12/09 10:31:56;;;;;;;10.63;9.07;;;3.90;99.90;;;;;;5074679;28;20719;-81
2021/12/09 10:34:57;;;;;;;11.57;7.97;;;3.50;99.90;;;;;;5056008;28;20471;-80
2021/12/09 10:37:37;;;;;;;19.20;7.97;;;3.80;99.90;;;;;;5031301;28;20444;-80
2021/12/09 10:40:21;;;;;;;16.43;7.27;;;3.80;99.90;;;;;;5065386;28;20429;-80
2021/12/09 10:43:14;;;;;;;10.97;7.80;;;3.70;99.90;;;;;;5032781;28;20584;-81
2021/12/09 10:45:59;;;;;;;20.00;10.87;;;3.90;99.90;;;;;;5026020;28;20485;-80
2021/12/09 10:52:17;;;;;;;12.20;9.40;;;3.80;99.90;;;;;;5029408;28;20410;-80
2021/12/09 10:54:56;;;;;;;17.07;8.63;;;3.90;99.90;;;;;;5025542;28;20387;-80
2021/12/09 10:57:35;;;;;;;15.60;10.73;;;3.60;99.90;;;;;;5015068;28;20529;-81
2021/12/09 11:00:22;;;;;;;14.87;9.57;;;3.70;99.90;;;;;;5022733;28;20398;-80
2021/12/09 11:03:08;;;;;;;16.73;9.23;;;3.90;99.90;;;;;;5034528;28;20468;-81
2021/12/09 11:09:07;;;;;;;22.03;9.43;;;4.40;99.90;;;;;;5027501;28;20197;-80
2021/12/09 11:12:10;;;;;;;19.63;9.50;;;4.50;99.90;;;;;;4998757;28;20389;-81
2021/12/09 11:14:55;;;;;;;19.23;10.00;;;4.60;99.90;;;;;;5066369;28;20437;-81
2021/12/09 11:17:42;;;;;;;14.83;10.00;;;4.60;99.90;;;;;;5073295;28;20546;-80
2021/12/09 11:20:08;;;;;;;20.05;11.38;;;4.70;99.90;;;;;;5073512;28;20439;-81
2021/12/09 11:26:31;;;;;;;16.10;8.50;;;4.70;99.90;;;;;;5052242;28;20422;-80
2021/12/09 11:29:01;;;;;;;11.63;8.67;;;4.60;99.90;;;;;;5063980;28;20400;-80
2021/12/09 11:32:05;;;;;;;11.30;7.33;;;4.50;99.90;;;;;;5051523;28;20421;-81
2021/12/09 11:34:38;;;;;;;12.60;8.20;;;4.70;99.90;;;;;;5053847;28;20422;-81
2021/12/09 11:37:44;;;;;;;9.77;7.30;;;4.80;99.90;;;;;;5059829;28;20438;-81
2021/12/09 11:46:13;;;;;;;10.57;9.00;;;4.70;99.90;;;;;;5053042;28;20825;-81
2021/12/09 11:48:51;;;;;;;15.07;7.43;;;4.80;99.90;;;;;;5051053;28;20396;-81
2021/12/09 11:54:05;;;;;;;11.03;7.33;;;5.00;99.90;;;;;;5039181;28;20388;-81
2021/12/09 12:06:37;;;;;;;20.67;8.13;;;5.10;99.90;;;;;;5059080;28;20880;-82
2021/12/09 12:12:46;;;;;;;10.27;7.27;;;5.50;99.90;;;;;;5042380;28;20484;-80
2021/12/09 12:15:59;;;;;;;15.93;7.40;;;5.50;99.90;;;;;;5040963;28;20506;-79
2021/12/09 12:19:15;;;;;;;11.27;7.80;;;5.40;99.90;;;;;;5038841;28;20412;-78
2021/12/09 12:25:05;;;;;;;10.97;7.37;;;5.50;99.90;;;;;;5050703;28;20404;-80
2021/12/09 12:31:10;;;;;;;9.77;7.13;;;5.60;99.90;;;;;;5008689;28;20456;-79
2021/12/09 12:34:48;;;;;;;15.80;8.03;;;5.60;99.90;;;;;;5001792;28;20410;-79
2021/12/09 12:37:49;;;;;;;12.33;7.57;;;5.60;99.90;;;;;;5014555;28;20890;-79
2021/12/09 12:40:54;;;;;;;9.80;7.53;;;5.50;99.90;;;;;;5023283;28;20473;-79
2021/12/09 12:43:43;;;;;;;8.13;7.30;;;5.60;99.90;;;;;;5001479;28;20379;-79
2021/12/09 12:46:30;;;;;;;9.87;8.47;;;5.40;99.90;;;;;;4984290;28;20477;-80
2021/12/09 12:49:31;;;;;;;17.90;8.30;;;5.30;99.90;;;;;;4992002;28;20429;-79
2021/12/09 12:58:21;;;;;;;20.63;9.43;;;4.80;99.90;;;;;;5044918;28;20436;-79
2021/12/09 13:11:23;;;;;;;14.57;9.37;;;4.60;99.90;;;;;;5052210;28;20796;-79
2021/12/09 13:17:31;;;;;;;16.97;9.70;;;5.00;99.90;;;;;;5063701;28;20873;-79
2021/12/09 13:20:05;;;;;;;9.53;8.50;;;5.10;99.90;;;;;;5071855;28;21034;-79
2021/12/09 13:22:49;;;;;;;20.43;9.63;;;5.00;99.90;;;;;;5077938;28;20460;-80
2021/12/09 13:25:59;;;;;;;17.70;9.03;;;5.10;99.90;;;;;;5063016;28;20416;-79
2021/12/09 13:28:49;;;;;;;19.33;8.77;;;5.00;99.90;;;;;;5079051;28;20430;-80
2021/12/09 13:32:15;;;;;;;24.10;9.00;;;5.20;99.90;;;;;;5047588;28;20433;-79
2021/12/09 13:47:38;;;;;;;9.30;8.40;;;4.80;99.90;;;;;;5069218;28;20409;-79
2021/12/09 13:50:51;;;;;;;15.03;9.67;;;4.70;99.90;;;;;;5057036;28;20429;-79
2021/12/09 13:54:17;;;;;;;14.70;8.40;;;4.40;99.90;;;;;;5054072;28;20410;-78
2021/12/09 13:56:56;;;;;;;10.17;8.17;;;4.20;99.90;;;;;;5085824;28;20436;-78
2021/12/09 13:59:36;;;;;;;17.60;9.27;;;4.10;99.90;;;;;;5071820;28;20395;-78
2021/12/09 14:02:30;;;;;;;20.33;9.30;;;4.00;99.90;;;;;;5044463;28;20449;-79
2021/12/09 14:11:47;;;;;;;27.10;10.33;;;3.90;99.90;;;;;;5067495;28;20404;-80
2021/12/09 14:14:47;;;;;;;16.20;9.53;;;3.90;99.90;;;;;;5071707;28;20396;-80
2021/12/09 14:20:20;;;;;;;18.33;9.90;;;3.90;99.90;;;;;;5045127;28;20428;-80
2021/12/09 14:23:04;;;;;;;17.30;9.70;;;3.90;99.90;;;;;;5051117;28;20429;-80
2021/12/09 14:25:50;;;;;;;14.57;9.53;;;3.70;99.90;;;;;;5060435;28;20442;-80
2021/12/09 14:28:31;;;;;;;12.53;8.67;;;3.60;99.90;;;;;;5063662;28;20407;-80
2021/12/09 14:31:15;;;;;;;15.37;8.87;;;3.80;99.90;;;;;;5057300;28;20956;-80
2021/12/09 14:34:01;;;;;;;15.87;10.20;;;3.70;99.90;;;;;;5063386;28;20439;-80
2021/12/09 14:39:42;;;;;;;15.70;9.43;;;3.80;99.90;;;;;;5061284;28;20473;-79
2021/12/09 14:42:25;;;;;;;11.43;7.60;;;3.90;99.90;;;;;;5057578;28;20560;-80
2021/12/09 14:44:55;;;;;;;12.40;10.20;;;4.00;99.90;;;;;;5055141;28;20438;-81
2021/12/09 14:50:46;;;;;;;10.80;7.00;;;4.40;99.90;;;;;;5085851;28;20582;-79
2021/12/09 14:53:40;;;;;;;15.97;8.50;;;4.60;99.90;;;;;;5085894;28;20434;-80
2021/12/09 14:59:35;;;;;;;9.10;6.30;;;4.70;99.90;;;;;;5079350;28;20396;-80
2021/12/09 15:02:33;;;;;;;14.30;7.87;;;4.80;99.90;;;;;;5081109;28;20432;-82
2021/12/09 15:05:28;;;;;;;15.00;6.77;;;4.90;99.90;;;;;;5081556;28;20414;-82
2021/12/09 15:08:22;;;;;;;13.43;6.60;;;4.90;99.90;;;;;;5079761;28;20704;-81
2021/12/09 15:11:21;;;;;;;8.40;5.73;;;4.90;99.90;;;;;;5080470;28;20396;-83
2021/12/09 15:17:16;;;;;;;17.70;7.50;;;5.00;99.90;;;;;;5077904;28;20395;-82
2021/12/09 15:20:20;;;;;;;10.43;7.73;;;4.90;99.90;;;;;;5082082;28;20407;-81
2021/12/09 15:26:14;;;;;;;11.67;6.53;;;4.90;99.90;;;;;;5083989;28;20536;-81
2021/12/09 15:38:29;;;;;;;14.30;6.83;;;4.30;99.90;;;;;;5068105;28;20468;-80
2021/12/09 15:41:14;;;;;;;8.70;7.00;;;4.30;99.90;;;;;;5080699;28;20428;-80
2021/12/09 15:44:11;;;;;;;13.57;7.97;;;4.10;99.90;;;;;;5079426;28;20396;-79
2021/12/09 15:47:07;;;;;;;12.57;6.90;;;4.40;99.90;;;;;;5079805;28;20737;-80
2021/12/09 15:50:03;;;;;;;12.63;8.60;;;4.40;99.90;;;;;;5075854;28;21112;-80
2021/12/09 15:56:24;;;;;;;9.87;5.70;;;4.50;99.90;;;;;;5082024;28;20456;-81
2021/12/09 15:59:09;;;;;;;12.67;8.10;;;4.50;99.90;;;;;;5086699;28;20459;-80
2021/12/09 16:01:36;;;;;;;13.93;8.80;;;4.40;99.90;;;;;;5084375;28;20435;-79
2021/12/09 16:10:48;;;;;;;7.30;6.20;;;4.10;99.90;;;;;;5085207;28;20397;-79
2021/12/09 16:13:39;;;;;;;15.87;6.47;;;4.20;99.90;;;;;;5091112;28;20403;-80
2021/12/09 16:16:11;;;;;;;13.27;8.77;;;4.40;99.90;;;;;;5082595;28;20395;-79
2021/12/09 16:19:03;;;;;;;12.63;9.13;;;4.50;99.90;;;;;;5069483;28;20540;-80
2021/12/09 16:31:18;;;;;;;15.90;7.20;;;4.70;99.90;;;;;;5087579;28;20432;-81
2021/12/09 16:33:56;;;;;;;12.77;6.87;;;4.70;99.90;;;;;;5085670;28;20380;-80
2021/12/09 16:36:58;;;;;;;18.00;7.93;;;4.80;99.90;;;;;;5069419;28;20465;-80
2021/12/09 16:39:58;;;;;;;15.57;7.47;;;4.70;99.90;;;;;;5070421;28;20445;-81
2021/12/09 16:42:37;;;;;;;16.30;8.50;;;4.60;99.90;;;;;;5067994;28;20432;-81
2021/12/09 16:45:27;;;;;;;10.27;6.90;;;4.50;99.90;;;;;;5068611;28;20419;-81
2021/12/09 16:48:13;;;;;;;13.23;8.47;;;4.60;99.90;;;;;;5067043;28;20370;-80
2021/12/09 16:50:42;;;;;;;12.47;9.07;;;4.60;99.90;;;;;;5067167;28;20422;-80
2021/12/09 16:53:48;;;;;;;6.63;6.10;;;4.60;99.90;;;;;;5031555;28;20863;-80
2021/12/09 16:56:53;;;;;;;8.43;6.70;;;4.60;99.90;;;;;;5047907;28;20446;-81
2021/12/09 16:59:32;;;;;;;12.03;5.67;;;4.50;99.90;;;;;;5060737;28;20443;-80
2021/12/09 17:02:14;;;;;;;14.63;7.93;;;4.40;99.90;;;;;;5066775;28;20428;-80
2021/12/09 17:11:17;;;;;;;18.57;7.63;;;4.50;99.90;;;;;;5066267;28;20853;-81
2021/12/09 17:17:03;;;;;;;7.90;6.40;;;4.40;99.90;;;;;;5066985;28;20387;-79
2021/12/09 17:19:56;;;;;;;10.93;5.90;;;4.30;99.90;;;;;;5074908;28;20403;-78
2021/12/09 17:22:23;;;;;;;11.17;6.20;;;4.50;99.90;;;;;;5054660;28;20516;-77
2021/12/09 17:25:07;;;;;;;17.43;7.93;;;4.50;99.90;;;;;;5071657;28;20509;-80
2021/12/09 17:27:59;;;;;;;6.90;5.87;;;4.50;99.90;;;;;;5068406;28;20406;-79
2021/12/09 17:33:59;;;;;;;12.83;7.03;;;4.60;99.90;;;;;;5067672;28;20516;-80
2021/12/09 17:36:51;;;;;;;10.10;5.87;;;4.20;99.90;;;;;;5067570;28;20435;-80
2021/12/09 17:39:18;;;;;;;9.83;5.30;;;4.40;99.90;;;;;;5082896;28;20431;-80
2021/12/09 17:42:27;;;;;;;14.27;5.70;;;4.40;99.90;;;;;;5086556;28;20478;-80
2021/12/09 17:45:07;;;;;;;7.87;5.90;;;4.40;99.90;;;;;;5086997;28;20412;-80
2021/12/09 17:47:33;;;;;;;13.00;7.90;;;4.40;99.90;;;;;;5087605;28;20368;-80
2021/12/09 18:05:57;;;;;;;17.60;9.30;;;3.90;99.90;;;;;;5085639;28;20399;-79
2021/12/09 18:08:42;;;;;;;13.70;8.13;;;3.70;99.90;;;;;;5092378;28;20392;-79
2021/12/09 18:11:39;;;;;;;13.27;9.70;;;3.50;99.90;;;;;;5094328;28;20398;-79
2021/12/09 18:17:43;;;;;;;14.20;9.00;;;3.30;99.90;;;;;;5093788;28;20459;-80
2021/12/09 18:23:19;;;;;;;21.93;12.37;;;3.50;99.90;;;;;;5090036;28;20410;-80
2021/12/09 18:29:26;;;;;;;25.30;16.73;;;3.50;99.90;;;;;;5079856;28;20390;-81
2021/12/09 18:32:11;;;;;;;20.77;12.43;;;3.40;99.90;;;;;;5055014;28;20271;-79
2021/12/09 18:35:14;;;;;;;18.00;11.47;;;3.50;99.90;;;;;;5079635;28;20376;-80
2021/12/09 18:38:12;;;;;;;18.57;11.07;;;3.70;99.90;;;;;;5088069;28;20543;-81
2021/12/09 18:43:57;;;;;;;17.67;11.67;;;3.60;99.90;;;;;;5080925;28;20385;-80
2021/12/09 18:46:54;;;;;;;16.83;12.53;;;3.60;99.90;;;;;;5080246;28;20466;-80
2021/12/09 18:52:35;;;;;;;13.73;8.20;;;3.70;99.90;;;;;;5087946;28;20376;-79
2021/12/09 18:55:14;;;;;;;14.13;8.43;;;3.60;99.90;;;;;;5086813;28;20413;-79
2021/12/09 19:01:29;;;;;;;15.10;9.97;;;3.50;99.90;;;;;;5087314;28;20480;-77
2021/12/09 19:04:33;;;;;;;16.17;10.90;;;3.60;99.90;;;;;;5097369;28;20380;-80
2021/12/09 19:07:20;;;;;;;16.63;9.80;;;3.50;99.90;;;;;;5089763;28;20393;-80
2021/12/09 19:10:24;;;;;;;15.00;10.00;;;3.50;99.90;;;;;;5089552;28;20401;-79
2021/12/09 19:13:02;;;;;;;17.80;10.17;;;3.50;99.90;;;;;;5089005;28;20372;-80
2021/12/09 19:15:29;;;;;;;13.53;9.27;;;3.60;99.90;;;;;;5089224;28;20408;-80
2021/12/09 19:18:25;;;;;;;13.23;9.90;;;3.50;99.90;;;;;;5071142;28;20421;-80
2021/12/09 19:21:31;;;;;;;16.43;11.57;;;3.40;99.90;;;;;;5089557;28;20485;-80
2021/12/09 19:24:34;;;;;;;11.53;8.80;;;3.30;99.90;;;;;;5088844;28;20397;-81
2021/12/09 19:27:02;;;;;;;10.43;8.07;;;3.20;99.90;;;;;;5089444;28;20387;-80
2021/12/09 19:29:47;;;;;;;11.37;8.30;;;3.20;99.90;;;;;;5089115;28;20357;-79
2021/12/09 19:35:31;;;;;;;16.13;9.87;;;3.20;99.90;;;;;;5089083;28;20375;-81
2021/12/09 19:38:35;;;;;;;17.93;9.43;;;3.10;99.90;;;;;;5070538;28;20445;-80
2021/12/09 19:54:03;;;;;;;17.83;10.50;;;3.10;99.90;;;;;;5089959;28;20485;-81
2021/12/09 19:56:42;;;;;;;20.07;11.27;;;3.10;99.90;;;;;;5089749;28;20380;-80
2021/12/09 19:59:46;;;;;;;16.20;10.07;;;3.10;99.90;;;;;;5089430;28;20431;-80
2021/12/09 20:02:48;;;;;;;11.37;7.57;;;3.20;99.90;;;;;;5088713;28;20926;-80
2021/12/09 20:05:15;;;;;;;13.23;7.50;;;3.10;99.90;;;;;;5088858;28;20459;-80
2021/12/09 20:07:53;;;;;;;15.80;9.77;;;3.20;99.90;;;;;;5089037;28;20368;-80
2021/12/09 20:10:44;;;;;;;18.57;10.10;;;3.20;99.90;;;;;;5088108;28;20376;-79
2021/12/09 20:13:37;;;;;;;19.97;10.07;;;3.10;99.90;;;;;;5088282;28;20463;-80
2021/12/09 20:16:18;;;;;;;23.43;10.43;;;3.10;99.90;;;;;;5073772;28;20417;-80
2021/12/09 20:19:08;;;;;;;19.00;10.03;;;3.00;99.90;;;;;;5088579;28;20396;-80
2021/12/09 20:21:46;;;;;;;22.53;9.23;;;3.20;99.90;;;;;;5089374;28;20500;-79
2021/12/09 20:24:24;;;;;;;8.63;7.00;;;3.30;99.90;;;;;;5070807;28;20372;-80
2021/12/09 20:27:34;;;;;;;12.40;8.87;;;3.30;99.90;;;;;;5088578;28;20372;-80
2021/12/09 20:30:20;;;;;;;10.93;8.60;;;3.10;99.90;;;;;;5089339;28;20392;-80